Time,TemperatureF,DewpointF,PressureIn,WindDirection,WindDirectionDegrees,WindSpeedMPH,WindSpeedGustMPH,Humidity,HourlyPrecipIn,Conditions,Clouds,dailyrainin,SolarRadiationWatts/m^2,SoftwareType,DateUTC
2013-05-10 00:02:00,47.1,44.3,29.95,NNW,340,1.0,1.0,90,0.00,,,0.00,0,Wunderground v.1.15,2013-05-10 05:02:00,
2013-05-10 00:07:00,47.5,44.7,29.94,NNW,340,1.0,2.0,90,0.00,,,0.00,0,Wunderground v.1.15,2013-05-10 05:07:00,
2013-05-10 00:12:00,47.5,44.7,29.95,NNW,340,2.0,2.0,90,0.00,,,0.00,0,Wunderground v.1.15,2013-05-10 05:12:00,
2013-05-10 00:18:00,47.5,44.7,29.95,NNW,340,1.0,2.0,90,0.00,,,0.00,0,Wunderground v.1.15,2013-05-10 05:18:00,
2013-05-10 00:23:00,47.2,44.4,29.95,NNW,340,0.0,1.0,90,0.00,,,0.00,0,Wunderground v.1.15,2013-05-10 05:23:00,
2013-05-10 00:28:00,46.8,44.0,29.95,NNW,340,0.0,1.0,90,0.00,,,0.00,0,Wunderground v.1.15,2013-05-10 05:28:00,
2013-05-10 00:33:00,46.3,43.5,29.95,NNW,340,0.0,0.0,90,0.00,,,0.00,0,Wunderground v.1.15,2013-05-10 05:33:00,
2013-05-10 00:38:00,45.7,42.9,29.95,NNW,340,0.0,0.0,90,0.00,,,0.00,0,Wunderground v.1.15,2013-05-10 05:38:00,
2013-05-10 00:44:00,45.4,42.6,29.95,NNW,340,0.0,0.0,90,0.00,,,0.00,0,Wunderground v.1.15,2013-05-10 05:44:00,
2013-05-10 00:49:00,44.3,41.6,29.95,NNW,340,0.0,2.0,90,0.00,,,0.00,0,Wunderground v.1.15,2013-05-10 05:49:00,
2013-05-10 00:54:00,43.9,41.2,29.95,NNW,340,1.0,1.0,90,0.00,,,0.00,0,Wunderground v.1.15,2013-05-10 05:54:00,
2013-05-10 00:59:00,44.2,41.5,29.95,NNW,340,2.0,2.0,90,0.00,,,0.00,0,Wunderground v.1.15,2013-05-10 05:59:00,
2013-05-10 01:04:00,44.5,42.0,29.96,NNW,340,2.0,2.0,91,0.00,,,0.00,0,Wunderground v.1.15,2013-05-10 06:04:00,
2013-05-10 01:09:00,44.8,42.3,29.96,NNW,340,3.0,3.0,91,0.00,,,0.00,0,Wunderground v.1.15,2013-05-10 06:09:00,
2013-05-10 01:14:00,44.7,42.2,29.96,NNW,340,1.0,2.0,91,0.00,,,0.00,0,Wunderground v.1.15,2013-05-10 06:14:00,
2013-05-10 01:19:00,44.9,42.4,29.96,NNW,340,1.0,2.0,91,0.00,,,0.00,0,Wunderground v.1.15,2013-05-10 06:19:00,
2013-05-10 01:24:00,45.2,42.7,29.96,NNW,340,0.0,2.0,91,0.00,,,0.00,0,Wunderground v.1.15,2013-05-10 06:24:00,
2013-05-10 01:29:00,44.4,41.9,29.96,NNW,340,0.0,2.0,91,0.00,,,0.00,0,Wunderground v.1.15,2013-05-10 06:29:00,
2013-05-10 01:35:00,41.6,38.9,29.96,NNW,340,0.0,0.0,90,0.00,,,0.00,0,Wunderground v.1.15,2013-05-10 06:35:00,
2013-05-10 01:40:00,41.1,38.4,29.96,NNW,340,0.0,0.0,90,0.00,,,0.00,0,Wunderground v.1.15,2013-05-10 06:40:00,
2013-05-10 01:46:00,41.3,38.9,29.96,NNW,340,0.0,0.0,91,0.00,,,0.00,0,Wunderground v.1.15,2013-05-10 06:46:00,
2013-05-10 01:51:00,41.4,39.0,29.96,NNW,340,0.0,0.0,91,0.00,,,0.00,0,Wunderground v.1.15,2013-05-10 06:51:00,
2013-05-10 01:56:00,41.8,39.4,29.96,NNW,340,0.0,0.0,91,0.00,,,0.00,0,Wunderground v.1.15,2013-05-10 06:56:00,
2013-05-10 02:01:00,42.2,39.8,29.95,NNW,340,0.0,0.0,91,0.00,,,0.00,0,Wunderground v.1.15,2013-05-10 07:01:00,
2013-05-10 02:06:00,42.8,40.4,29.95,NNW,340,0.0,0.0,91,0.00,,,0.00,0,Wunderground v.1.15,2013-05-10 07:06:00,
2013-05-10 02:11:00,42.7,40.3,29.95,NNW,340,0.0,0.0,91,0.00,,,0.00,0,Wunderground v.1.15,2013-05-10 07:11:00,
2013-05-10 02:16:00,42.4,40.0,29.95,NNW,340,0.0,0.0,91,0.00,,,0.00,0,Wunderground v.1.15,2013-05-10 07:16:00,
2013-05-10 02:21:00,41.8,39.4,29.95,NNW,340,0.0,0.0,91,0.00,,,0.00,0,Wunderground v.1.15,2013-05-10 07:21:00,
2013-05-10 02:26:00,41.2,38.8,29.95,NNW,340,0.0,0.0,91,0.00,,,0.00,0,Wunderground v.1.15,2013-05-10 07:26:00,
2013-05-10 02:31:00,41.0,38.6,29.95,NNW,340,0.0,0.0,91,0.00,,,0.00,0,Wunderground v.1.15,2013-05-10 07:31:00,
2013-05-10 02:36:00,40.8,38.4,29.95,NNW,340,0.0,0.0,91,0.00,,,0.00,0,Wunderground v.1.15,2013-05-10 07:36:00,
2013-05-10 02:41:00,40.8,38.4,29.95,NNW,340,0.0,0.0,91,0.00,,,0.00,0,Wunderground v.1.15,2013-05-10 07:41:00,
2013-05-10 02:46:00,40.9,38.5,29.95,NNW,340,0.0,1.0,91,0.00,,,0.00,0,Wunderground v.1.15,2013-05-10 07:46:00,
2013-05-10 02:51:00,40.8,38.4,29.95,NNW,340,0.0,0.0,91,0.00,,,0.00,0,Wunderground v.1.15,2013-05-10 07:51:00,
2013-05-10 02:56:00,40.3,37.9,29.96,NNW,340,0.0,0.0,91,0.00,,,0.00,0,Wunderground v.1.15,2013-05-10 07:56:00,
2013-05-10 03:01:00,40.0,37.6,29.96,NNW,340,0.0,0.0,91,0.00,,,0.00,0,Wunderground v.1.15,2013-05-10 08:01:00,
2013-05-10 03:06:00,40.0,37.6,29.96,NNW,340,0.0,2.0,91,0.00,,,0.00,0,Wunderground v.1.15,2013-05-10 08:06:00,
2013-05-10 03:11:00,40.2,37.8,29.96,NNW,340,0.0,0.0,91,0.00,,,0.00,0,Wunderground v.1.15,2013-05-10 08:11:00,
2013-05-10 03:16:00,40.1,37.7,29.96,NNW,340,0.0,0.0,91,0.00,,,0.00,0,Wunderground v.1.15,2013-05-10 08:16:00,
2013-05-10 03:21:00,39.9,37.5,29.97,NNW,340,0.0,0.0,91,0.00,,,0.00,0,Wunderground v.1.15,2013-05-10 08:21:00,
2013-05-10 03:26:00,39.6,37.2,29.96,NNW,340,0.0,0.0,91,0.00,,,0.00,0,Wunderground v.1.15,2013-05-10 08:26:00,
2013-05-10 03:31:00,39.2,36.8,29.96,NNW,340,1.0,2.0,91,0.00,,,0.00,0,Wunderground v.1.15,2013-05-10 08:31:00,
2013-05-10 03:36:00,39.1,36.7,29.97,NNW,340,0.0,2.0,91,0.00,,,0.00,0,Wunderground v.1.15,2013-05-10 08:36:00,
2013-05-10 03:41:00,39.0,36.6,29.97,NNW,340,0.0,1.0,91,0.00,,,0.00,0,Wunderground v.1.15,2013-05-10 08:41:00,
2013-05-10 03:46:00,39.5,37.1,29.97,NNW,340,0.0,1.0,91,0.00,,,0.00,0,Wunderground v.1.15,2013-05-10 08:46:00,
2013-05-10 03:51:00,40.0,37.6,29.97,NNW,340,2.0,2.0,91,0.00,,,0.00,0,Wunderground v.1.15,2013-05-10 08:51:00,
2013-05-10 03:56:00,40.1,37.7,29.97,NNW,340,0.0,2.0,91,0.00,,,0.00,0,Wunderground v.1.15,2013-05-10 08:56:00,
2013-05-10 04:01:00,40.0,37.6,29.97,NNW,340,0.0,1.0,91,0.00,,,0.00,0,Wunderground v.1.15,2013-05-10 09:01:00,
2013-05-10 04:06:00,39.8,37.4,29.98,NNW,340,0.0,1.0,91,0.00,,,0.00,0,Wunderground v.1.15,2013-05-10 09:06:00,
2013-05-10 04:11:00,39.9,37.8,29.98,NNW,340,0.0,0.0,92,0.00,,,0.00,0,Wunderground v.1.15,2013-05-10 09:11:00,
2013-05-10 04:16:00,40.5,38.1,29.98,NNW,340,1.0,2.0,91,0.00,,,0.00,0,Wunderground v.1.15,2013-05-10 09:16:00,
2013-05-10 04:21:00,41.5,39.3,29.98,NNW,340,0.0,0.0,92,0.00,,,0.00,0,Wunderground v.1.15,2013-05-10 09:21:00,
2013-05-10 04:26:00,41.9,39.7,29.98,NNW,340,0.0,1.0,92,0.00,,,0.00,0,Wunderground v.1.15,2013-05-10 09:26:00,
2013-05-10 04:31:00,42.1,39.9,29.98,NNW,340,0.0,0.0,92,0.00,,,0.00,0,Wunderground v.1.15,2013-05-10 09:31:00,
2013-05-10 04:36:00,42.4,40.2,29.98,NNW,340,0.0,0.0,92,0.00,,,0.00,0,Wunderground v.1.15,2013-05-10 09:36:00,
2013-05-10 04:41:00,42.9,40.7,29.98,NNW,340,0.0,0.0,92,0.00,,,0.00,0,Wunderground v.1.15,2013-05-10 09:41:00,
2013-05-10 04:46:00,43.2,41.0,29.98,NNW,340,0.0,1.0,92,0.00,,,0.00,0,Wunderground v.1.15,2013-05-10 09:46:00,
2013-05-10 04:51:00,43.7,41.5,29.98,NNW,340,0.0,0.0,92,0.00,,,0.00,0,Wunderground v.1.15,2013-05-10 09:51:00,
2013-05-10 04:56:00,44.1,41.9,29.98,NNW,340,1.0,2.0,92,0.00,,,0.00,0,Wunderground v.1.15,2013-05-10 09:56:00,
2013-05-10 05:01:00,44.5,42.3,29.98,NNW,340,0.0,1.0,92,0.00,,,0.00,0,Wunderground v.1.15,2013-05-10 10:01:00,
2013-05-10 05:06:00,44.9,42.7,29.98,NNW,340,0.0,1.0,92,0.00,,,0.00,0,Wunderground v.1.15,2013-05-10 10:06:00,
2013-05-10 05:11:00,45.4,43.2,29.98,NNW,340,0.0,1.0,92,0.00,,,0.00,0,Wunderground v.1.15,2013-05-10 10:11:00,
2013-05-10 05:16:00,46.0,43.8,29.98,NNW,340,2.0,3.0,92,0.00,,,0.00,0,Wunderground v.1.15,2013-05-10 10:16:00,
2013-05-10 05:21:00,46.5,44.3,29.98,NNW,340,0.0,1.0,92,0.00,,,0.00,0,Wunderground v.1.15,2013-05-10 10:21:00,
2013-05-10 05:26:00,47.0,44.8,29.98,NNW,340,4.0,4.0,92,0.00,,,0.00,0,Wunderground v.1.15,2013-05-10 10:26:00,
2013-05-10 05:31:00,47.7,45.5,29.98,NNW,340,2.0,2.0,92,0.00,,,0.00,0,Wunderground v.1.15,2013-05-10 10:31:00,
2013-05-10 05:36:00,48.1,45.9,29.98,NNW,340,0.0,2.0,92,0.00,,,0.00,0,Wunderground v.1.15,2013-05-10 10:36:00,
2013-05-10 05:41:00,48.3,46.1,29.98,NNW,340,1.0,3.0,92,0.00,,,0.00,0,Wunderground v.1.15,2013-05-10 10:41:00,
2013-05-10 05:46:00,48.5,46.3,29.98,North,350,3.0,6.0,92,0.00,,,0.00,0,Wunderground v.1.15,2013-05-10 10:46:00,
2013-05-10 05:51:00,48.5,46.3,29.98,North,351,0.0,3.0,92,0.00,,,0.00,0,Wunderground v.1.15,2013-05-10 10:51:00,
2013-05-10 05:56:00,48.5,46.3,29.98,North,351,1.0,3.0,92,0.00,,,0.00,0,Wunderground v.1.15,2013-05-10 10:56:00,
2013-05-10 06:01:00,48.5,46.3,29.98,North,351,7.0,7.0,92,0.00,,,0.00,0,Wunderground v.1.15,2013-05-10 11:01:00,
2013-05-10 06:06:00,48.4,46.2,29.98,North,360,3.0,7.0,92,0.00,,,0.00,0,Wunderground v.1.15,2013-05-10 11:06:00,
2013-05-10 06:11:00,48.3,46.1,29.98,North,360,3.0,4.0,92,0.00,,,0.00,0,Wunderground v.1.15,2013-05-10 11:11:00,
2013-05-10 06:16:00,48.3,46.1,29.98,North,360,3.0,4.0,92,0.00,,,0.00,0,Wunderground v.1.15,2013-05-10 11:16:00,
2013-05-10 06:21:00,48.2,46.0,29.98,North,360,0.0,3.0,92,0.00,,,0.00,0,Wunderground v.1.15,2013-05-10 11:21:00,
2013-05-10 06:26:00,48.2,46.0,29.98,North,5,2.0,4.0,92,0.00,,,0.00,0,Wunderground v.1.15,2013-05-10 11:26:00,
2013-05-10 06:31:00,48.3,46.1,29.98,North,5,3.0,4.0,92,0.00,,,0.00,11,Wunderground v.1.15,2013-05-10 11:31:00,
2013-05-10 06:36:00,48.3,46.1,29.98,North,5,3.0,4.0,92,0.00,,,0.00,14,Wunderground v.1.15,2013-05-10 11:36:00,
2013-05-10 06:41:00,48.4,46.2,29.98,NNE,23,3.0,4.0,92,0.00,,,0.00,16,Wunderground v.1.15,2013-05-10 11:41:00,
2013-05-10 06:46:00,48.3,46.1,29.99,NNE,29,4.0,6.0,92,0.00,,,0.00,19,Wunderground v.1.15,2013-05-10 11:46:00,
2013-05-10 06:51:00,48.3,46.1,29.98,NE,35,4.0,5.0,92,0.00,,,0.00,26,Wunderground v.1.15,2013-05-10 11:51:00,
2013-05-10 06:56:00,48.2,46.0,29.98,NE,34,3.0,7.0,92,0.00,,,0.00,26,Wunderground v.1.15,2013-05-10 11:56:00,
2013-05-10 07:01:00,48.2,47.1,29.98,NE,45,4.0,4.0,96,0.00,,,0.00,28,Wunderground v.1.15,2013-05-10 12:01:00,
2013-05-10 07:06:00,48.1,45.9,29.98,NE,47,0.0,4.0,92,0.00,,,0.00,32,Wunderground v.1.15,2013-05-10 12:06:00,
2013-05-10 07:12:00,48.0,45.8,29.99,NE,47,0.0,2.0,92,0.00,,,0.00,37,Wunderground v.1.15,2013-05-10 12:12:00,
2013-05-10 07:17:00,48.0,45.8,29.99,NE,47,2.0,3.0,92,0.00,,,0.00,32,Wunderground v.1.15,2013-05-10 12:17:00,
2013-05-10 07:22:00,48.1,45.9,29.99,NE,47,2.0,3.0,92,0.00,,,0.00,44,Wunderground v.1.15,2013-05-10 12:22:00,
2013-05-10 07:27:00,48.1,45.9,29.99,NE,47,2.0,4.0,92,0.00,,,0.00,54,Wunderground v.1.15,2013-05-10 12:27:00,
2013-05-10 07:31:00,48.1,45.9,29.99,NE,47,1.0,3.0,92,0.00,,,0.00,56,Wunderground v.1.15,2013-05-10 12:31:00,
2013-05-10 07:37:00,47.9,45.7,29.99,NE,47,0.0,4.0,92,0.00,,,0.00,69,Wunderground v.1.15,2013-05-10 12:37:00,
2013-05-10 07:42:00,47.9,45.7,29.99,NE,47,1.0,1.0,92,0.00,,,0.00,72,Wunderground v.1.15,2013-05-10 12:42:00,
2013-05-10 07:47:00,48.1,45.9,29.99,NE,47,0.0,1.0,92,0.00,,,0.00,77,Wunderground v.1.15,2013-05-10 12:47:00,
2013-05-10 07:52:00,48.1,45.9,30.00,NE,47,0.0,0.0,92,0.00,,,0.00,70,Wunderground v.1.15,2013-05-10 12:52:00,
2013-05-10 07:57:00,48.3,46.1,30.00,NE,47,2.0,3.0,92,0.00,,,0.00,74,Wunderground v.1.15,2013-05-10 12:57:00,
2013-05-10 08:02:00,48.3,46.1,30.00,NE,47,1.0,2.0,92,0.00,,,0.00,86,Wunderground v.1.15,2013-05-10 13:02:00,
2013-05-10 08:07:00,48.5,46.3,30.00,NE,47,4.0,4.0,92,0.00,,,0.00,114,Wunderground v.1.15,2013-05-10 13:07:00,
2013-05-10 08:12:00,48.6,46.4,30.00,NE,47,3.0,3.0,92,0.00,,,0.00,81,Wunderground v.1.15,2013-05-10 13:12:00,
2013-05-10 08:17:00,48.6,46.4,30.00,NE,47,3.0,6.0,92,0.00,,,0.00,54,Wunderground v.1.15,2013-05-10 13:17:00,
2013-05-10 08:22:00,48.3,46.1,30.00,NE,47,3.0,5.0,92,0.00,,,0.00,65,Wunderground v.1.15,2013-05-10 13:22:00,
2013-05-10 08:27:00,48.4,46.2,30.00,NE,47,3.0,5.0,92,0.00,,,0.00,105,Wunderground v.1.15,2013-05-10 13:27:00,
2013-05-10 08:32:00,48.5,46.3,30.00,NE,47,2.0,4.0,92,0.00,,,0.00,95,Wunderground v.1.15,2013-05-10 13:32:00,
2013-05-10 08:37:00,48.6,46.4,30.00,NE,47,2.0,5.0,92,0.00,,,0.00,86,Wunderground v.1.15,2013-05-10 13:37:00,
2013-05-10 08:42:00,48.5,46.3,30.00,NE,47,0.0,2.0,92,0.00,,,0.00,107,Wunderground v.1.15,2013-05-10 13:42:00,
2013-05-10 08:47:00,48.6,46.4,30.00,NE,47,0.0,4.0,92,0.00,,,0.00,151,Wunderground v.1.15,2013-05-10 13:47:00,
2013-05-10 08:52:00,48.5,46.3,30.00,NE,47,4.0,4.0,92,0.00,,,0.00,142,Wunderground v.1.15,2013-05-10 13:52:00,
2013-05-10 08:57:00,48.7,46.5,30.00,NE,47,0.0,4.0,92,0.00,,,0.00,165,Wunderground v.1.15,2013-05-10 13:57:00,
2013-05-10 09:02:00,49.0,46.8,30.00,NE,47,0.0,2.0,92,0.00,,,0.00,162,Wunderground v.1.15,2013-05-10 14:02:00,
2013-05-10 09:07:00,49.0,46.8,30.01,NE,47,0.0,2.0,92,0.00,,,0.00,183,Wunderground v.1.15,2013-05-10 14:07:00,
2013-05-10 09:12:00,49.1,46.9,30.01,NE,47,0.0,2.0,92,0.00,,,0.00,186,Wunderground v.1.15,2013-05-10 14:12:00,
2013-05-10 09:17:00,49.1,46.9,30.01,NE,47,0.0,2.0,92,0.00,,,0.00,174,Wunderground v.1.15,2013-05-10 14:17:00,
2013-05-10 09:22:00,49.4,47.2,30.01,NE,47,0.0,3.0,92,0.00,,,0.00,171,Wunderground v.1.15,2013-05-10 14:22:00,
2013-05-10 09:27:00,49.6,47.4,30.01,NE,44,2.0,4.0,92,0.00,,,0.00,200,Wunderground v.1.15,2013-05-10 14:27:00,
2013-05-10 09:32:00,49.6,47.4,30.01,NE,44,0.0,2.0,92,0.00,,,0.00,258,Wunderground v.1.15,2013-05-10 14:32:00,
2013-05-10 09:37:00,49.8,47.6,30.01,NE,44,2.0,4.0,92,0.00,,,0.00,211,Wunderground v.1.15,2013-05-10 14:37:00,
2013-05-10 09:42:00,49.7,47.5,30.01,NE,42,4.0,4.0,92,0.00,,,0.00,220,Wunderground v.1.15,2013-05-10 14:42:00,
2013-05-10 09:47:00,50.0,47.8,30.01,NE,42,3.0,4.0,92,0.00,,,0.00,315,Wunderground v.1.15,2013-05-10 14:47:00,
2013-05-10 09:52:00,50.1,47.9,30.01,NE,42,2.0,3.0,92,0.00,,,0.00,269,Wunderground v.1.15,2013-05-10 14:52:00,
2013-05-10 09:57:00,50.1,47.9,30.01,NE,42,0.0,5.0,92,0.00,,,0.00,267,Wunderground v.1.15,2013-05-10 14:57:00,
2013-05-10 10:02:00,50.5,48.3,30.01,NE,42,1.0,3.0,92,0.00,,,0.00,216,Wunderground v.1.15,2013-05-10 15:02:00,
2013-05-10 10:07:00,50.7,48.5,30.01,NNE,29,5.0,6.0,92,0.00,,,0.00,267,Wunderground v.1.15,2013-05-10 15:07:00,
2013-05-10 10:12:00,50.8,48.6,30.01,NNE,29,3.0,6.0,92,0.00,,,0.00,237,Wunderground v.1.15,2013-05-10 15:12:00,
2013-05-10 10:17:00,50.7,48.5,30.01,NNE,29,3.0,6.0,92,0.00,,,0.00,216,Wunderground v.1.15,2013-05-10 15:17:00,
2013-05-10 10:22:00,50.9,48.7,30.01,NNE,29,1.0,2.0,92,0.00,,,0.00,200,Wunderground v.1.15,2013-05-10 15:22:00,
2013-05-10 10:27:00,51.0,48.8,30.01,NNE,29,5.0,5.0,92,0.00,,,0.00,244,Wunderground v.1.15,2013-05-10 15:27:00,
2013-05-10 10:32:00,51.2,49.0,30.01,NNE,16,4.0,6.0,92,0.00,,,0.00,288,Wunderground v.1.15,2013-05-10 15:32:00,
2013-05-10 10:37:00,51.3,49.1,30.01,NNE,16,2.0,6.0,92,0.00,,,0.00,309,Wunderground v.1.15,2013-05-10 15:37:00,
2013-05-10 10:42:00,51.5,49.3,30.01,NNE,16,0.0,3.0,92,0.00,,,0.00,288,Wunderground v.1.15,2013-05-10 15:42:00,
2013-05-10 10:47:00,51.7,49.5,30.01,NNE,16,0.0,3.0,92,0.00,,,0.00,287,Wunderground v.1.15,2013-05-10 15:47:00,
2013-05-10 10:52:00,51.8,49.5,30.01,NNE,16,2.0,3.0,92,0.00,,,0.00,306,Wunderground v.1.15,2013-05-10 15:52:00,
2013-05-10 10:57:00,51.8,49.5,30.01,NNE,16,0.0,3.0,92,0.00,,,0.00,287,Wunderground v.1.15,2013-05-10 15:57:00,
2013-05-10 11:02:00,51.8,49.5,30.01,NNE,16,0.0,2.0,92,0.00,,,0.00,301,Wunderground v.1.15,2013-05-10 16:02:00,
2013-05-10 11:07:00,52.0,49.7,30.01,NNE,16,1.0,2.0,92,0.00,,,0.00,308,Wunderground v.1.15,2013-05-10 16:07:00,
2013-05-10 11:12:00,52.2,49.9,30.01,NNE,16,0.0,1.0,92,0.00,,,0.00,294,Wunderground v.1.15,2013-05-10 16:12:00,
2013-05-10 11:17:00,52.3,50.0,30.01,NNE,16,0.0,3.0,92,0.00,,,0.00,269,Wunderground v.1.15,2013-05-10 16:17:00,
2013-05-10 11:22:00,52.6,50.3,30.02,NNE,16,3.0,4.0,92,0.00,,,0.00,258,Wunderground v.1.15,2013-05-10 16:22:00,
2013-05-10 11:27:00,52.9,50.6,30.02,NNE,16,3.0,5.0,92,0.00,,,0.00,274,Wunderground v.1.15,2013-05-10 16:27:00,
2013-05-10 11:32:00,52.9,50.6,30.02,NNE,16,2.0,3.0,92,0.00,,,0.00,304,Wunderground v.1.15,2013-05-10 16:32:00,
2013-05-10 11:37:00,53.4,51.1,30.02,NNE,16,4.0,6.0,92,0.00,,,0.00,352,Wunderground v.1.15,2013-05-10 16:37:00,
2013-05-10 11:42:00,53.4,51.1,30.02,North,11,2.0,7.0,92,0.00,,,0.00,352,Wunderground v.1.15,2013-05-10 16:42:00,
2013-05-10 11:47:00,53.5,51.2,30.01,NNE,12,4.0,7.0,92,0.00,,,0.00,422,Wunderground v.1.15,2013-05-10 16:47:00,
2013-05-10 11:52:00,54.2,51.9,30.02,North,360,4.0,6.0,92,0.00,,,0.00,575,Wunderground v.1.15,2013-05-10 16:52:00,
2013-05-10 11:57:00,54.6,52.0,30.02,NNW,340,2.0,8.0,91,0.00,,,0.00,471,Wunderground v.1.15,2013-05-10 16:57:00,
2013-05-10 12:02:00,54.6,52.0,30.01,NNW,341,3.0,4.0,91,0.00,,,0.00,461,Wunderground v.1.15,2013-05-10 17:02:00,
2013-05-10 12:07:00,55.1,52.5,30.01,NNW,339,3.0,7.0,91,0.00,,,0.00,585,Wunderground v.1.15,2013-05-10 17:07:00,
2013-05-10 12:12:00,55.5,52.9,30.01,North,5,6.0,6.0,91,0.00,,,0.00,613,Wunderground v.1.15,2013-05-10 17:12:00,
2013-05-10 12:17:00,55.7,53.1,30.01,North,355,5.0,6.0,91,0.00,,,0.00,758,Wunderground v.1.15,2013-05-10 17:17:00,
2013-05-10 12:22:00,56.3,53.4,30.01,NNW,337,2.0,7.0,90,0.00,,,0.00,671,Wunderground v.1.15,2013-05-10 17:22:00,
2013-05-10 12:27:00,56.4,52.9,30.01,NNW,336,4.0,7.0,88,0.00,,,0.00,508,Wunderground v.1.15,2013-05-10 17:27:00,
2013-05-10 12:32:00,57.0,53.5,30.01,NNW,336,2.0,6.0,88,0.00,,,0.00,411,Wunderground v.1.15,2013-05-10 17:32:00,
2013-05-10 12:37:00,56.8,52.7,30.01,North,5,4.0,6.0,86,0.00,,,0.01,1148,Wunderground v.1.15,2013-05-10 17:37:00,
2013-05-10 12:42:00,57.5,53.3,30.01,North,360,1.0,6.0,86,0.00,,,0.01,425,Wunderground v.1.15,2013-05-10 17:42:00,
2013-05-10 12:47:00,57.2,52.4,30.00,NE,45,3.0,8.0,84,0.00,,,0.01,991,Wunderground v.1.15,2013-05-10 17:47:00,
2013-05-10 12:52:00,57.6,52.8,30.00,North,5,4.0,8.0,84,0.00,,,0.01,972,Wunderground v.1.15,2013-05-10 17:52:00,
2013-05-10 12:57:00,58.0,52.9,30.00,NNE,21,0.0,8.0,83,0.00,,,0.01,947,Wunderground v.1.15,2013-05-10 17:57:00,
2013-05-10 13:03:00,58.7,53.2,30.00,NW,319,4.0,7.0,82,0.00,,,0.01,882,Wunderground v.1.15,2013-05-10 18:03:00,
2013-05-10 13:08:00,59.2,53.4,30.00,NNE,30,4.0,7.0,81,0.00,,,0.01,946,Wunderground v.1.15,2013-05-10 18:08:00,
2013-05-10 13:12:00,59.8,54.0,29.99,NE,46,6.0,7.0,81,0.00,,,0.01,944,Wunderground v.1.15,2013-05-10 18:12:00,
2013-05-10 13:17:00,59.3,53.5,29.99,NE,39,3.0,7.0,81,0.00,,,0.01,965,Wunderground v.1.15,2013-05-10 18:17:00,
2013-05-10 13:22:00,59.1,53.3,29.99,NE,55,4.0,5.0,81,0.00,,,0.01,965,Wunderground v.1.15,2013-05-10 18:22:00,
2013-05-10 13:28:00,59.9,53.0,29.99,NE,47,4.0,6.0,78,0.00,,,0.01,986,Wunderground v.1.15,2013-05-10 18:28:00,
2013-05-10 13:33:00,60.6,53.0,29.98,NE,47,2.0,4.0,76,0.00,,,0.01,965,Wunderground v.1.15,2013-05-10 18:33:00,
2013-05-10 13:38:00,61.2,54.6,29.98,NNE,22,3.0,8.0,79,0.00,,,0.01,967,Wunderground v.1.15,2013-05-10 18:38:00,
2013-05-10 13:43:00,61.6,53.6,29.98,NNE,27,6.0,8.0,75,0.00,,,0.01,935,Wunderground v.1.15,2013-05-10 18:43:00,
2013-05-10 13:48:00,61.2,52.5,29.98,NE,52,4.0,8.0,73,0.00,,,0.01,951,Wunderground v.1.15,2013-05-10 18:48:00,
2013-05-10 13:53:00,61.7,53.7,29.98,ENE,70,4.0,9.0,75,0.00,,,0.01,949,Wunderground v.1.15,2013-05-10 18:53:00,
2013-05-10 13:58:00,62.1,52.2,29.98,ESE,105,3.0,9.0,70,0.00,,,0.01,954,Wunderground v.1.15,2013-05-10 18:58:00,
2013-05-10 14:03:00,62.6,51.5,29.98,NE,46,2.0,6.0,67,0.00,,,0.01,947,Wunderground v.1.15,2013-05-10 19:03:00,
2013-05-10 14:08:00,63.6,52.0,29.98,NE,45,5.0,8.0,66,0.00,,,0.01,944,Wunderground v.1.15,2013-05-10 19:08:00,
2013-05-10 14:13:00,63.6,49.9,29.97,NE,45,2.0,9.0,61,0.00,,,0.01,944,Wunderground v.1.15,2013-05-10 19:13:00,
2013-05-10 14:18:00,64.2,50.9,29.97,North,355,1.0,9.0,62,0.00,,,0.01,946,Wunderground v.1.15,2013-05-10 19:18:00,
2013-05-10 14:23:00,63.8,50.5,29.97,NNE,20,2.0,6.0,62,0.00,,,0.01,935,Wunderground v.1.15,2013-05-10 19:23:00,
2013-05-10 14:28:00,65.0,50.8,29.97,North,355,4.0,6.0,60,0.00,,,0.01,928,Wunderground v.1.15,2013-05-10 19:28:00,
2013-05-10 14:33:00,65.4,49.8,29.97,North,355,7.0,10.0,57,0.00,,,0.01,925,Wunderground v.1.15,2013-05-10 19:33:00,
2013-05-10 14:38:00,65.3,49.2,29.97,NNE,30,6.0,10.0,56,0.00,,,0.01,928,Wunderground v.1.15,2013-05-10 19:38:00,
2013-05-10 14:43:00,65.6,48.0,29.96,North,360,3.0,6.0,53,0.00,,,0.01,916,Wunderground v.1.15,2013-05-10 19:43:00,
2013-05-10 14:48:00,65.6,48.0,29.96,NNE,24,5.0,7.0,53,0.00,,,0.01,916,Wunderground v.1.15,2013-05-10 19:48:00,
2013-05-10 14:53:00,66.0,48.9,29.96,NNW,348,7.0,7.0,54,0.00,,,0.01,907,Wunderground v.1.15,2013-05-10 19:53:00,
2013-05-10 14:58:00,66.8,47.0,29.96,NNW,329,1.0,9.0,49,0.00,,,0.01,900,Wunderground v.1.15,2013-05-10 19:58:00,
2013-05-10 15:03:00,67.1,46.7,29.96,WNW,289,6.0,7.0,48,0.00,,,0.01,891,Wunderground v.1.15,2013-05-10 20:03:00,
2013-05-10 15:08:00,67.2,46.8,29.96,NW,313,4.0,9.0,48,0.00,,,0.01,888,Wunderground v.1.15,2013-05-10 20:08:00,
2013-05-10 15:13:00,67.3,45.8,29.96,NNW,346,0.0,7.0,46,0.00,,,0.01,879,Wunderground v.1.15,2013-05-10 20:13:00,
2013-05-10 15:18:00,67.0,47.7,29.95,NNW,346,0.0,7.0,50,0.00,,,0.01,860,Wunderground v.1.15,2013-05-10 20:18:00,
2013-05-10 15:23:00,66.8,46.5,29.95,East,96,3.0,6.0,48,0.00,,,0.01,849,Wunderground v.1.15,2013-05-10 20:23:00,
2013-05-10 15:28:00,66.4,48.2,29.95,SSE,161,0.0,6.0,52,0.00,,,0.01,851,Wunderground v.1.15,2013-05-10 20:28:00,
2013-05-10 15:33:00,67.8,47.9,29.95,North,355,1.0,7.0,49,0.00,,,0.01,844,Wunderground v.1.15,2013-05-10 20:33:00,
2013-05-10 15:38:00,68.2,47.2,29.95,NNE,33,5.0,7.0,47,0.00,,,0.01,837,Wunderground v.1.15,2013-05-10 20:38:00,
2013-05-10 15:43:00,68.5,47.5,29.94,NNW,337,0.0,7.0,47,0.00,,,0.01,821,Wunderground v.1.15,2013-05-10 20:43:00,
2013-05-10 15:48:00,68.8,49.9,29.94,North,11,8.0,8.0,51,0.00,,,0.01,814,Wunderground v.1.15,2013-05-10 20:48:00,
2013-05-10 15:53:00,68.7,48.2,29.94,North,360,3.0,9.0,48,0.00,,,0.01,802,Wunderground v.1.15,2013-05-10 20:53:00,
2013-05-10 15:58:00,69.4,49.4,29.94,NW,314,2.0,9.0,49,0.00,,,0.01,789,Wunderground v.1.15,2013-05-10 20:58:00,
2013-05-10 16:03:00,68.4,46.8,29.93,SW,233,6.0,7.0,46,0.00,,,0.01,782,Wunderground v.1.15,2013-05-10 21:03:00,
2013-05-10 16:08:00,68.3,45.5,29.93,North,360,4.0,7.0,44,0.00,,,0.01,700,Wunderground v.1.15,2013-05-10 21:08:00,
2013-05-10 16:13:00,69.0,46.8,29.93,West,263,4.0,9.0,45,0.00,,,0.01,768,Wunderground v.1.15,2013-05-10 21:13:00,
2013-05-10 16:18:00,69.3,47.6,29.93,North,5,5.0,9.0,46,0.00,,,0.01,754,Wunderground v.1.15,2013-05-10 21:18:00,
2013-05-10 16:23:00,69.7,46.8,29.93,NNE,21,5.0,8.0,44,0.00,,,0.01,731,Wunderground v.1.15,2013-05-10 21:23:00,
2013-05-10 16:28:00,69.1,45.7,29.92,WSW,252,3.0,8.0,43,0.00,,,0.01,721,Wunderground v.1.15,2013-05-10 21:28:00,
2013-05-10 16:33:00,69.6,46.7,29.92,ENE,74,0.0,7.0,44,0.00,,,0.01,700,Wunderground v.1.15,2013-05-10 21:33:00,
2013-05-10 16:38:00,69.5,44.1,29.92,NW,304,3.0,11.0,40,0.00,,,0.01,687,Wunderground v.1.15,2013-05-10 21:38:00,
2013-05-10 16:43:00,70.3,44.8,29.92,NNW,329,3.0,7.0,40,0.00,,,0.01,679,Wunderground v.1.15,2013-05-10 21:43:00,
2013-05-10 16:48:00,70.5,40.8,29.91,WNW,294,2.0,11.0,34,0.00,,,0.01,677,Wunderground v.1.15,2013-05-10 21:48:00,
2013-05-10 16:53:00,70.7,42.4,29.91,NNW,328,6.0,10.0,36,0.00,,,0.01,652,Wunderground v.1.15,2013-05-10 21:53:00,
2013-05-10 16:58:00,70.2,44.1,29.91,West,273,5.0,11.0,39,0.00,,,0.01,510,Wunderground v.1.15,2013-05-10 21:58:00,
2013-05-10 16:59:00,70.2,43.4,29.91,West,268,5.0,11.0,38,0.00,,,0.01,561,Wunderground v.1.15,2013-05-10 21:59:00,
2013-05-10 17:04:00,70.6,43.1,29.91,NNW,342,3.0,8.0,37,0.00,,,0.01,631,Wunderground v.1.15,2013-05-10 22:04:00,
2013-05-10 17:09:00,70.9,38.7,29.91,WNW,300,8.0,13.0,31,0.00,,,0.01,621,Wunderground v.1.15,2013-05-10 22:09:00,
2013-05-10 17:14:00,70.8,38.7,29.91,WNW,298,6.0,11.0,31,0.00,,,0.01,608,Wunderground v.1.15,2013-05-10 22:14:00,
2013-05-10 17:19:00,70.7,39.4,29.91,West,274,10.0,11.0,32,0.00,,,0.01,591,Wunderground v.1.15,2013-05-10 22:19:00,
2013-05-10 17:24:00,71.0,38.0,29.91,West,281,7.0,12.0,30,0.00,,,0.01,573,Wunderground v.1.15,2013-05-10 22:24:00,
2013-05-10 17:29:00,70.6,38.5,29.91,North,355,8.0,12.0,31,0.00,,,0.01,541,Wunderground v.1.15,2013-05-10 22:29:00,
2013-05-10 17:34:00,70.9,38.7,29.91,NNE,15,8.0,14.0,31,0.00,,,0.01,545,Wunderground v.1.15,2013-05-10 22:34:00,
2013-05-10 17:39:00,71.0,39.6,29.91,NNW,328,14.0,17.0,32,0.00,,,0.01,531,Wunderground v.1.15,2013-05-10 22:39:00,
2013-05-10 17:44:00,70.9,39.6,29.90,NNE,16,5.0,15.0,32,0.00,,,0.01,515,Wunderground v.1.15,2013-05-10 22:44:00,
2013-05-10 17:49:00,70.7,38.6,29.90,NNW,342,6.0,15.0,31,0.00,,,0.01,497,Wunderground v.1.15,2013-05-10 22:49:00,
2013-05-10 17:54:00,70.7,39.4,29.90,North,355,6.0,14.0,32,0.00,,,0.01,482,Wunderground v.1.15,2013-05-10 22:54:00,
2013-05-10 17:59:00,70.6,38.5,29.90,NNW,331,10.0,14.0,31,0.00,,,0.01,464,Wunderground v.1.15,2013-05-10 22:59:00,
2013-05-10 18:04:00,70.4,39.1,29.90,NNW,345,7.0,12.0,32,0.00,,,0.01,446,Wunderground v.1.15,2013-05-10 23:04:00,
2013-05-10 18:09:00,70.6,40.1,29.90,NW,315,4.0,12.0,33,0.00,,,0.01,434,Wunderground v.1.15,2013-05-10 23:09:00,
2013-05-10 18:14:00,70.6,38.5,29.89,NNW,336,3.0,10.0,31,0.00,,,0.01,411,Wunderground v.1.15,2013-05-10 23:14:00,
2013-05-10 18:19:00,70.7,39.4,29.89,North,5,10.0,10.0,32,0.00,,,0.01,396,Wunderground v.1.15,2013-05-10 23:19:00,
2013-05-10 18:24:00,70.8,38.7,29.89,North,5,5.0,6.0,31,0.00,,,0.01,381,Wunderground v.1.15,2013-05-10 23:24:00,
2013-05-10 18:29:00,71.2,39.0,29.89,NNE,24,2.0,6.0,31,0.00,,,0.01,366,Wunderground v.1.15,2013-05-10 23:29:00,
2013-05-10 18:34:00,71.6,40.2,29.89,NNE,17,0.0,5.0,32,0.00,,,0.01,348,Wunderground v.1.15,2013-05-10 23:34:00,
2013-05-10 18:39:00,72.0,41.3,29.88,NNW,348,6.0,10.0,33,0.00,,,0.01,332,Wunderground v.1.15,2013-05-10 23:39:00,
2013-05-10 18:44:00,71.8,40.3,29.88,NNW,346,3.0,7.0,32,0.00,,,0.01,318,Wunderground v.1.15,2013-05-10 23:44:00,
2013-05-10 18:49:00,71.4,41.6,29.88,North,5,5.0,10.0,34,0.00,,,0.01,301,Wunderground v.1.15,2013-05-10 23:49:00,
2013-05-10 18:54:00,71.2,41.4,29.88,NNW,343,7.0,9.0,34,0.00,,,0.01,281,Wunderground v.1.15,2013-05-10 23:54:00,
2013-05-10 18:59:00,71.0,41.2,29.88,NNW,348,6.0,9.0,34,0.00,,,0.01,265,Wunderground v.1.15,2013-05-10 23:59:00,
2013-05-10 19:04:00,70.8,41.0,29.88,North,9,3.0,6.0,34,0.00,,,0.01,251,Wunderground v.1.15,2013-05-11 00:04:00,
2013-05-10 19:09:00,70.6,40.9,29.88,NNW,342,7.0,8.0,34,0.00,,,0.01,76,Wunderground v.1.15,2013-05-11 00:09:00,
2013-05-10 19:14:00,70.1,41.2,29.87,North,5,5.0,6.0,35,0.00,,,0.01,81,Wunderground v.1.15,2013-05-11 00:14:00,
2013-05-10 19:19:00,69.9,41.7,29.88,North,355,3.0,6.0,36,0.00,,,0.01,70,Wunderground v.1.15,2013-05-11 00:19:00,
2013-05-10 19:24:00,69.7,42.3,29.88,NNE,15,5.0,9.0,37,0.00,,,0.01,91,Wunderground v.1.15,2013-05-11 00:24:00,
2013-05-10 19:29:00,69.5,42.8,29.88,NNW,333,4.0,9.0,38,0.00,,,0.01,44,Wunderground v.1.15,2013-05-11 00:29:00,
2013-05-10 19:34:00,69.4,43.4,29.88,NNW,333,3.0,4.0,39,0.00,,,0.01,58,Wunderground v.1.15,2013-05-11 00:34:00,
2013-05-10 19:39:00,69.2,43.8,29.88,North,10,2.0,5.0,40,0.00,,,0.01,37,Wunderground v.1.15,2013-05-11 00:39:00,
2013-05-10 19:44:00,69.0,43.7,29.87,North,349,2.0,5.0,40,0.00,,,0.01,37,Wunderground v.1.15,2013-05-11 00:44:00,
2013-05-10 19:49:00,68.8,44.8,29.88,NNW,339,4.0,7.0,42,0.00,,,0.01,33,Wunderground v.1.15,2013-05-11 00:49:00,
2013-05-10 19:54:00,68.5,43.9,29.88,North,355,3.0,5.0,41,0.00,,,0.01,30,Wunderground v.1.15,2013-05-11 00:54:00,
2013-05-10 19:59:00,68.1,44.1,29.88,North,355,2.0,5.0,42,0.00,,,0.01,30,Wunderground v.1.15,2013-05-11 00:59:00,
2013-05-10 20:04:00,67.8,43.9,29.88,North,355,1.0,5.0,42,0.00,,,0.01,26,Wunderground v.1.15,2013-05-11 01:04:00,
2013-05-10 20:09:00,67.5,44.2,29.88,North,355,1.0,5.0,43,0.00,,,0.01,23,Wunderground v.1.15,2013-05-11 01:09:00,
2013-05-10 20:14:00,67.2,43.9,29.88,North,355,0.0,2.0,43,0.00,,,0.01,21,Wunderground v.1.15,2013-05-11 01:14:00,
2013-05-10 20:19:00,66.9,43.7,29.88,North,355,1.0,4.0,43,0.00,,,0.01,18,Wunderground v.1.15,2013-05-11 01:19:00,
2013-05-10 20:24:00,66.6,44.0,29.89,North,355,0.0,2.0,44,0.00,,,0.01,14,Wunderground v.1.15,2013-05-11 01:24:00,
2013-05-10 20:29:00,66.3,44.3,29.89,North,355,0.0,2.0,45,0.00,,,0.01,11,Wunderground v.1.15,2013-05-11 01:29:00,
2013-05-10 20:34:00,65.4,45.2,29.89,North,355,0.0,1.0,48,0.00,,,0.01,7,Wunderground v.1.15,2013-05-11 01:34:00,
2013-05-10 20:39:00,63.7,46.2,29.89,North,355,0.0,1.0,53,0.00,,,0.01,0,Wunderground v.1.15,2013-05-11 01:39:00,
2013-05-10 20:44:00,62.2,44.9,29.90,North,355,0.0,1.0,53,0.00,,,0.01,0,Wunderground v.1.15,2013-05-11 01:44:00,
2013-05-10 20:49:00,61.6,44.8,29.90,North,355,0.0,1.0,54,0.00,,,0.01,0,Wunderground v.1.15,2013-05-11 01:49:00,
2013-05-10 20:54:00,61.3,44.5,29.90,North,355,0.0,0.0,54,0.00,,,0.01,0,Wunderground v.1.15,2013-05-11 01:54:00,
2013-05-10 20:59:00,60.9,44.6,29.90,North,355,0.0,0.0,55,0.00,,,0.01,0,Wunderground v.1.15,2013-05-11 01:59:00,
2013-05-10 21:04:00,60.5,45.6,29.90,North,355,0.0,0.0,58,0.00,,,0.01,0,Wunderground v.1.15,2013-05-11 02:04:00,
2013-05-10 21:09:00,59.0,44.2,29.91,North,355,0.0,0.0,58,0.00,,,0.01,0,Wunderground v.1.15,2013-05-11 02:09:00,
2013-05-10 21:14:00,57.5,43.7,29.91,North,355,0.0,0.0,60,0.00,,,0.01,0,Wunderground v.1.15,2013-05-11 02:14:00,
2013-05-10 21:19:00,56.7,43.4,29.91,North,355,0.0,0.0,61,0.00,,,0.01,0,Wunderground v.1.15,2013-05-11 02:19:00,
2013-05-10 21:24:00,56.2,44.2,29.92,North,355,0.0,0.0,64,0.00,,,0.01,0,Wunderground v.1.15,2013-05-11 02:24:00,
2013-05-10 21:29:00,55.9,45.1,29.92,North,355,2.0,3.0,67,0.00,,,0.01,0,Wunderground v.1.15,2013-05-11 02:29:00,
2013-05-10 21:34:00,55.1,44.3,29.92,North,355,2.0,3.0,67,0.00,,,0.01,0,Wunderground v.1.15,2013-05-11 02:34:00,
2013-05-10 21:39:00,54.9,44.5,29.92,North,355,1.0,3.0,68,0.00,,,0.01,0,Wunderground v.1.15,2013-05-11 02:39:00,
2013-05-10 21:44:00,54.7,44.3,29.92,North,355,1.0,3.0,68,0.00,,,0.01,0,Wunderground v.1.15,2013-05-11 02:44:00,
2013-05-10 21:49:00,54.6,44.2,29.92,North,355,0.0,3.0,68,0.00,,,0.01,0,Wunderground v.1.15,2013-05-11 02:49:00,
2013-05-10 21:54:00,54.2,45.0,29.92,North,355,2.0,3.0,71,0.00,,,0.01,0,Wunderground v.1.15,2013-05-11 02:54:00,
2013-05-10 21:59:00,52.9,44.5,29.92,North,355,1.0,3.0,73,0.00,,,0.01,0,Wunderground v.1.15,2013-05-11 02:59:00,
2013-05-10 22:04:00,51.9,43.9,29.92,North,355,0.0,2.0,74,0.00,,,0.01,0,Wunderground v.1.15,2013-05-11 03:04:00,
2013-05-10 22:09:00,51.7,44.4,29.92,North,355,1.0,2.0,76,0.00,,,0.01,0,Wunderground v.1.15,2013-05-11 03:09:00,
2013-05-10 22:14:00,51.6,44.3,29.92,North,355,2.0,2.0,76,0.00,,,0.01,0,Wunderground v.1.15,2013-05-11 03:14:00,
2013-05-10 22:19:00,51.6,44.6,29.92,North,355,1.0,2.0,77,0.00,,,0.01,0,Wunderground v.1.15,2013-05-11 03:19:00,
2013-05-10 22:24:00,51.3,44.7,29.93,North,355,2.0,2.0,78,0.00,,,0.01,0,Wunderground v.1.15,2013-05-11 03:24:00,
2013-05-10 22:29:00,50.8,44.5,29.94,NW,311,3.0,5.0,79,0.00,,,0.01,0,Wunderground v.1.15,2013-05-11 03:29:00,
2013-05-10 22:34:00,50.5,44.9,29.95,NW,310,6.0,7.0,81,0.00,,,0.01,0,Wunderground v.1.15,2013-05-11 03:34:00,
2013-05-10 22:39:00,51.5,45.5,29.95,WNW,283,8.0,10.0,80,0.00,,,0.01,0,Wunderground v.1.15,2013-05-11 03:39:00,
2013-05-10 22:44:00,53.0,45.3,29.95,WNW,294,7.0,8.0,75,0.00,,,0.01,0,Wunderground v.1.15,2013-05-11 03:44:00,
2013-05-10 22:49:00,54.0,45.2,29.95,NW,304,7.0,8.0,72,0.00,,,0.01,0,Wunderground v.1.15,2013-05-11 03:49:00,
2013-05-10 22:54:00,55.1,45.9,29.95,NW,306,4.0,9.0,71,0.00,,,0.01,0,Wunderground v.1.15,2013-05-11 03:54:00,
2013-05-10 22:59:00,57.6,46.7,29.95,NW,323,9.0,12.0,67,0.00,,,0.01,0,Wunderground v.1.15,2013-05-11 03:59:00,
2013-05-10 23:01:00,58.1,46.8,29.95,NW,308,7.0,8.0,66,0.00,,,0.01,0,Wunderground v.1.15,2013-05-11 04:01:00,
2013-05-10 23:06:00,60.1,46.6,29.95,NW,323,5.0,16.0,61,0.00,,,0.01,0,Wunderground v.1.15,2013-05-11 04:06:00,
2013-05-10 23:11:00,61.1,46.2,29.95,NNW,331,8.0,14.0,58,0.00,,,0.01,0,Wunderground v.1.15,2013-05-11 04:11:00,
2013-05-10 23:16:00,61.7,45.8,29.95,NNW,332,6.0,14.0,56,0.00,,,0.01,0,Wunderground v.1.15,2013-05-11 04:16:00,
2013-05-10 23:21:00,61.8,46.4,29.95,NW,306,6.0,9.0,57,0.00,,,0.01,0,Wunderground v.1.15,2013-05-11 04:21:00,
2013-05-10 23:26:00,61.0,47.0,29.95,WNW,302,5.0,9.0,60,0.00,,,0.01,0,Wunderground v.1.15,2013-05-11 04:26:00,
2013-05-10 23:31:00,60.1,46.6,29.96,WNW,300,7.0,10.0,61,0.00,,,0.01,0,Wunderground v.1.15,2013-05-11 04:31:00,
2013-05-10 23:36:00,60.0,46.5,29.96,NNW,327,5.0,11.0,61,0.00,,,0.01,0,Wunderground v.1.15,2013-05-11 04:36:00,
2013-05-10 23:41:00,60.2,46.7,29.96,NNW,328,6.0,7.0,61,0.00,,,0.01,0,Wunderground v.1.15,2013-05-11 04:41:00,
2013-05-10 23:46:00,59.9,46.4,29.96,NW,316,3.0,9.0,61,0.00,,,0.01,0,Wunderground v.1.15,2013-05-11 04:46:00,
2013-05-10 23:51:00,59.4,46.4,29.96,WNW,293,8.0,8.0,62,0.00,,,0.01,0,Wunderground v.1.15,2013-05-11 04:51:00,
2013-05-10 23:56:00,58.9,46.7,29.97,NW,309,4.0,10.0,64,0.00,,,0.01,0,Wunderground v.1.15,2013-05-11 04:56:00,